DATA ZE ZPRÁV METAR

Zprávy METAR jsou pravidelné letecké meteorologické zprávy o podmínkách na daném letišti, zejména o stavu oblačnosti, viditelnosti a průběhu počasí v poslední hodině. Na letištích s pravidelným provozem jsou vydávány každých 30 minut, jinak zpravidla jednou za hodinu. Ne každé letiště (zejména komerční) poskytuje zprávy po celých 24 hodin denně. Více o zprávách METAR najdete na této stránce.

Zprávy METAR z letišť v blízkém okolí

LKPR - Praha Ruzyně, Česká republika
Směr a vzdálenost od této stanice: ZJZ 98km
Aktualizováno: 27.04.2018 02:30
Jasno, Jasná obloha
Jasno, Jasná obloha
 Vítr ze směru J
Vítr: J 7 km/h
Teplota: 5°C
Chlad větru: 3°C
Rosný bod: 1°C
Vlhkost: 76%
Tlak vzduchu: 1018 hPa
Stav počasí: Jasno
Oblačnost: Jasná obloha
Dohlednost: více než 10 km
2018/04/27 00:30 LKPR 270030Z 18004KT CAVOK 05/01 Q1018 NOSIG
LKTB - Brno Tuřany, Česká republika
Směr a vzdálenost od této stanice: JJV 174km
Aktualizováno: 27.04.2018 02:30
Jasno, Jasná obloha
Jasno, Jasná obloha
 Vítr ze směru proměnlivý
Vítr: proměnlivý 2 km/h
Teplota: 6°C
Rosný bod: 1°C
Vlhkost: 71%
Tlak vzduchu: 1019 hPa
Stav počasí: Jasno
Oblačnost: Jasná obloha
Dohlednost: více než 10 km
2018/04/27 00:30 LKTB 270030Z VRB01KT CAVOK 06/01 Q1019 NOSIG
 
LKKV - Karlovy Vary, Česká republika
Směr a vzdálenost od této stanice: Z 187km
Aktualizováno: 27.04.2018 02:00
Jasno, Jasná obloha
Jasno, Jasná obloha
 Vítr ze směru V
Vítr: V 6 km/h
Teplota: 1°C
Rosný bod: -1°C
Vlhkost: 87%
Tlak vzduchu: 1018 hPa
Stav počasí: Jasno
Oblačnost: Jasná obloha
Dohlednost: více než 10 km
2018/04/27 00:00 LKKV 270000Z 09003KT CAVOK 01/M01 Q1018
LKMT - Ostrava Mošnov, Česká republika
Směr a vzdálenost od této stanice: VJV 208km
Aktualizováno: 27.04.2018 02:30
Jasno, Jasná obloha
Jasno, Jasná obloha
 Vítr ze směru proměnlivý
Vítr: proměnlivý 4 km/h
Teplota: 4°C
Rosný bod: 3°C
Vlhkost: 93%
Tlak vzduchu: 1018 hPa
Stav počasí: Jasno
Oblačnost: Jasná obloha
Dohlednost: více než 10 km
2018/04/27 00:30 LKMT 270030Z VRB02KT CAVOK 04/03 Q1018 NOSIG
 
LKPD - Pardubice, Česká republika
Směr a vzdálenost od této stanice: JJV 56km
Aktualizováno: 27.04.2018 02:00
Jasno, Jasná obloha
Jasno, Jasná obloha
 Vítr ze směru JJZ
Vítr: JJZ 4 km/h
Teplota: 5°C
Rosný bod: 2°C
Vlhkost: 81%
Tlak vzduchu: 1019 hPa
Stav počasí: Jasno
Oblačnost: Jasná obloha
Dohlednost: více než 10 km
2018/04/27 00:00 LKPD 270000Z 20002KT CAVOK 05/02 Q1019
LKKB - Praha Kbely, Česká republika
Směr a vzdálenost od této stanice: ZJZ 81km
Aktualizováno: 27.04.2018 02:00
Jasno, Jasná obloha
Jasno, Jasná obloha
 Vítr ze směru JJV
Vítr: JJV 6 km/h
Teplota: 5°C
Rosný bod: 2°C
Vlhkost: 81%
Tlak vzduchu: 1019 hPa
Stav počasí: Jasno
Oblačnost: Jasná obloha
Dohlednost: více než 10 km
2018/04/27 00:00 LKKB 270000Z 16003KT CAVOK 05/02 Q1019
 
LKCV - Čáslav, Česká republika
Směr a vzdálenost od této stanice: J 63km
Aktualizováno: 27.04.2018 02:00
Jasno, Jasná obloha
Jasno, Jasná obloha
 Vítr ze směru JZ
Vítr: JZ 7 km/h
Teplota: 8°C
Chlad větru: 7°C
Rosný bod: 2°C
Vlhkost: 66%
Tlak vzduchu: 1018 hPa
Stav počasí: Jasno
Oblačnost: Jasná obloha
Dohlednost: více než 10 km
2018/04/27 00:00 LKCV 270000Z 22004KT CAVOK 08/02 Q1018
LKNA - Náměšť n. Osl., Česká republika
Směr a vzdálenost od této stanice: JJV 154km
Aktualizováno: 27.04.2018 02:00
Jasno, Jasná obloha
Jasno, Jasná obloha
 Vítr ze směru ZSZ
Vítr: ZSZ 11 km/h
Teplota: 7°C
Chlad větru: 5°C
Rosný bod: 0°C
Vlhkost: 61%
Tlak vzduchu: 1019 hPa
Stav počasí: Jasno
Oblačnost: Jasná obloha
Dohlednost: více než 10 km
2018/04/27 00:00 LKNA 270000Z 29006KT CAVOK 07/00 Q1019
 
LKLN - Plzeň Líně, Česká republika
Směr a vzdálenost od této stanice: ZJZ 184km
Aktualizováno: 27.04.2018 02:00
Jasno, Jasná obloha
Jasno, Jasná obloha
 Vítr ze směru proměnlivý
Vítr: proměnlivý 2 km/h
Teplota: 3°C
Rosný bod: 0°C
Vlhkost: 81%
Tlak vzduchu: 1019 hPa
Stav počasí: Jasno
Oblačnost: Jasná obloha
Dohlednost: více než 10 km
2018/04/27 00:00 LKLN 270000Z AUTO VRB01KT CAVOK 03/00 Q1019
EDDC - Dresden Klotzsch, Německo
Směr a vzdálenost od této stanice: ZSZ 142km
Aktualizováno: 27.04.2018 02:20
Skoro zataženo
Skoro zataženo
 Vítr ze směru J
Vítr: J 7 km/h
Teplota: 6°C
Chlad větru: 4°C
Rosný bod: 4°C
Vlhkost: 87%
Tlak vzduchu: 1018 hPa
Oblačnost: Skoro zataženo
Dohlednost: 10 km
Detaily oblačnosti: Skoro jasno 1189 m
Skoro zataženo 1951 m
2018/04/27 00:20 EDDC 270020Z 19004KT 150V240 9999 FEW039 BKN064 06/04 Q1018